sensor_id;sensor_type;location;lat;lon;timestamp;P1;durP1;ratioP1;P2;durP2;ratioP2
8592;SDS011;4334;49.982;8.398;2023-03-14T00:00:10;2.00;;;1.80;;
8592;SDS011;4334;49.982;8.398;2023-03-14T00:02:40;4.17;;;2.00;;
8592;SDS011;4334;49.982;8.398;2023-03-14T00:05:07;3.87;;;1.90;;
8592;SDS011;4334;49.982;8.398;2023-03-14T00:07:35;3.90;;;1.57;;
8592;SDS011;4334;49.982;8.398;2023-03-14T00:10:04;2.70;;;1.90;;
8592;SDS011;4334;49.982;8.398;2023-03-14T00:12:32;1.87;;;1.70;;
8592;SDS011;4334;49.982;8.398;2023-03-14T00:14:58;4.20;;;1.80;;
8592;SDS011;4334;49.982;8.398;2023-03-14T00:17:29;7.67;;;2.00;;
8592;SDS011;4334;49.982;8.398;2023-03-14T00:19:56;2.90;;;1.40;;
8592;SDS011;4334;49.982;8.398;2023-03-14T00:22:29;6.37;;;1.93;;
8592;SDS011;4334;49.982;8.398;2023-03-14T00:24:56;5.10;;;1.93;;
8592;SDS011;4334;49.982;8.398;2023-03-14T00:27:22;4.70;;;2.90;;
8592;SDS011;4334;49.982;8.398;2023-03-14T00:29:49;3.97;;;2.00;;
8592;SDS011;4334;49.982;8.398;2023-03-14T00:32:16;5.10;;;2.10;;
8592;SDS011;4334;49.982;8.398;2023-03-14T00:34:44;7.67;;;2.07;;
8592;SDS011;4334;49.982;8.398;2023-03-14T00:37:11;3.83;;;1.70;;
8592;SDS011;4334;49.982;8.398;2023-03-14T00:39:37;4.40;;;1.67;;
8592;SDS011;4334;49.982;8.398;2023-03-14T00:42:04;4.97;;;2.00;;
8592;SDS011;4334;49.982;8.398;2023-03-14T00:44:31;3.87;;;1.60;;
8592;SDS011;4334;49.982;8.398;2023-03-14T00:46:58;2.20;;;1.60;;
8592;SDS011;4334;49.982;8.398;2023-03-14T00:49:25;3.80;;;1.77;;
8592;SDS011;4334;49.982;8.398;2023-03-14T00:51:53;3.73;;;1.60;;
8592;SDS011;4334;49.982;8.398;2023-03-14T00:54:20;5.63;;;1.77;;
8592;SDS011;4334;49.982;8.398;2023-03-14T00:56:47;2.97;;;1.60;;
8592;SDS011;4334;49.982;8.398;2023-03-14T00:59:15;3.13;;;1.53;;
8592;SDS011;4334;49.982;8.398;2023-03-14T01:01:42;6.00;;;1.70;;
8592;SDS011;4334;49.982;8.398;2023-03-14T01:04:08;6.30;;;1.43;;
8592;SDS011;4334;49.982;8.398;2023-03-14T01:06:35;7.40;;;2.73;;
8592;SDS011;4334;49.982;8.398;2023-03-14T01:09:04;5.73;;;1.60;;
8592;SDS011;4334;49.982;8.398;2023-03-14T01:11:32;4.73;;;1.60;;
8592;SDS011;4334;49.982;8.398;2023-03-14T01:14:00;4.20;;;1.50;;
8592;SDS011;4334;49.982;8.398;2023-03-14T01:16:28;5.63;;;1.70;;
8592;SDS011;4334;49.982;8.398;2023-03-14T01:18:57;2.83;;;1.50;;
8592;SDS011;4334;49.982;8.398;2023-03-14T01:21:25;5.10;;;1.70;;
8592;SDS011;4334;49.982;8.398;2023-03-14T01:23:54;7.13;;;1.67;;
8592;SDS011;4334;49.982;8.398;2023-03-14T01:26:24;1.87;;;1.37;;
8592;SDS011;4334;49.982;8.398;2023-03-14T01:28:53;4.73;;;1.60;;
8592;SDS011;4334;49.982;8.398;2023-03-14T01:31:21;4.87;;;1.67;;
8592;SDS011;4334;49.982;8.398;2023-03-14T01:33:49;3.53;;;1.40;;
8592;SDS011;4334;49.982;8.398;2023-03-14T01:36:16;4.30;;;1.50;;
8592;SDS011;4334;49.982;8.398;2023-03-14T01:38:43;4.13;;;1.60;;
8592;SDS011;4334;49.982;8.398;2023-03-14T01:41:12;5.00;;;1.77;;
8592;SDS011;4334;49.982;8.398;2023-03-14T01:43:42;3.63;;;1.60;;
8592;SDS011;4334;49.982;8.398;2023-03-14T01:46:19;3.43;;;1.70;;
8592;SDS011;4334;49.982;8.398;2023-03-14T01:48:57;2.57;;;1.50;;
8592;SDS011;4334;49.982;8.398;2023-03-14T01:51:29;4.83;;;1.73;;
8592;SDS011;4334;49.982;8.398;2023-03-14T01:54:02;3.07;;;1.33;;
8592;SDS011;4334;49.982;8.398;2023-03-14T01:56:32;9.80;;;1.70;;
8592;SDS011;4334;49.982;8.398;2023-03-14T01:59:01;3.87;;;1.50;;
8592;SDS011;4334;49.982;8.398;2023-03-14T02:01:32;6.70;;;1.60;;
8592;SDS011;4334;49.982;8.398;2023-03-14T02:04:02;7.37;;;1.60;;
8592;SDS011;4334;49.982;8.398;2023-03-14T02:06:32;4.70;;;1.60;;
8592;SDS011;4334;49.982;8.398;2023-03-14T02:09:05;5.13;;;1.60;;
8592;SDS011;4334;49.982;8.398;2023-03-14T02:11:32;5.73;;;1.90;;
8592;SDS011;4334;49.982;8.398;2023-03-14T02:14:00;7.13;;;1.80;;
8592;SDS011;4334;49.982;8.398;2023-03-14T02:16:29;4.67;;;1.80;;
8592;SDS011;4334;49.982;8.398;2023-03-14T02:18:56;3.27;;;1.37;;
8592;SDS011;4334;49.982;8.398;2023-03-14T02:21:24;5.27;;;1.83;;
8592;SDS011;4334;49.982;8.398;2023-03-14T02:24:03;2.57;;;1.30;;
8592;SDS011;4334;49.982;8.398;2023-03-14T02:26:38;4.17;;;1.60;;
8592;SDS011;4334;49.982;8.398;2023-03-14T02:29:10;5.10;;;1.60;;
8592;SDS011;4334;49.982;8.398;2023-03-14T02:31:37;5.90;;;1.60;;
8592;SDS011;4334;49.982;8.398;2023-03-14T02:34:04;4.10;;;1.63;;
8592;SDS011;4334;49.982;8.398;2023-03-14T02:36:31;6.93;;;1.60;;
8592;SDS011;4334;49.982;8.398;2023-03-14T02:39:00;4.60;;;1.50;;
8592;SDS011;4334;49.982;8.398;2023-03-14T02:41:33;5.20;;;1.80;;
8592;SDS011;4334;49.982;8.398;2023-03-14T02:44:00;5.07;;;1.70;;
8592;SDS011;4334;49.982;8.398;2023-03-14T02:46:28;3.07;;;1.53;;
8592;SDS011;4334;49.982;8.398;2023-03-14T02:48:56;4.50;;;1.40;;
8592;SDS011;4334;49.982;8.398;2023-03-14T02:51:27;5.67;;;1.80;;
8592;SDS011;4334;49.982;8.398;2023-03-14T02:53:55;6.93;;;1.40;;
8592;SDS011;4334;49.982;8.398;2023-03-14T02:56:22;6.23;;;1.47;;
8592;SDS011;4334;49.982;8.398;2023-03-14T04:37:06;4.90;;;1.57;;
8592;SDS011;4334;49.982;8.398;2023-03-14T04:39:33;2.80;;;1.30;;
8592;SDS011;4334;49.982;8.398;2023-03-14T04:42:00;4.30;;;1.33;;
8592;SDS011;4334;49.982;8.398;2023-03-14T04:44:27;3.03;;;1.67;;
8592;SDS011;4334;49.982;8.398;2023-03-14T04:46:53;6.10;;;1.43;;
8592;SDS011;4334;49.982;8.398;2023-03-14T04:49:20;3.97;;;1.50;;
8592;SDS011;4334;49.982;8.398;2023-03-14T04:51:47;3.43;;;1.47;;
8592;SDS011;4334;49.982;8.398;2023-03-14T04:54:17;6.07;;;1.40;;
8592;SDS011;4334;49.982;8.398;2023-03-14T04:56:44;3.87;;;1.13;;
8592;SDS011;4334;49.982;8.398;2023-03-14T04:59:10;6.13;;;1.80;;
8592;SDS011;4334;49.982;8.398;2023-03-14T05:01:37;4.67;;;1.47;;
8592;SDS011;4334;49.982;8.398;2023-03-14T05:04:04;3.73;;;1.40;;
8592;SDS011;4334;49.982;8.398;2023-03-14T05:06:31;3.53;;;1.20;;
8592;SDS011;4334;49.982;8.398;2023-03-14T05:08:57;4.00;;;1.50;;
8592;SDS011;4334;49.982;8.398;2023-03-14T05:11:26;4.77;;;1.30;;
8592;SDS011;4334;49.982;8.398;2023-03-14T05:13:53;3.80;;;1.30;;
8592;SDS011;4334;49.982;8.398;2023-03-14T05:16:19;4.30;;;1.30;;
8592;SDS011;4334;49.982;8.398;2023-03-14T05:18:46;4.57;;;1.47;;
8592;SDS011;4334;49.982;8.398;2023-03-14T05:21:13;1.77;;;1.13;;
8592;SDS011;4334;49.982;8.398;2023-03-14T05:23:40;3.27;;;1.20;;
8592;SDS011;4334;49.982;8.398;2023-03-14T05:26:07;3.07;;;1.10;;
8592;SDS011;4334;49.982;8.398;2023-03-14T05:28:35;2.10;;;1.10;;
8592;SDS011;4334;49.982;8.398;2023-03-14T05:31:05;4.70;;;1.50;;
8592;SDS011;4334;49.982;8.398;2023-03-14T05:33:32;6.40;;;1.57;;
8592;SDS011;4334;49.982;8.398;2023-03-14T05:35:59;3.73;;;1.37;;
8592;SDS011;4334;49.982;8.398;2023-03-14T05:38:26;3.63;;;1.43;;
8592;SDS011;4334;49.982;8.398;2023-03-14T05:40:53;5.30;;;1.37;;
8592;SDS011;4334;49.982;8.398;2023-03-14T05:43:19;2.60;;;1.40;;
8592;SDS011;4334;49.982;8.398;2023-03-14T05:45:47;6.07;;;1.30;;
8592;SDS011;4334;49.982;8.398;2023-03-14T05:48:14;3.93;;;1.50;;
8592;SDS011;4334;49.982;8.398;2023-03-14T05:50:41;3.10;;;1.37;;
8592;SDS011;4334;49.982;8.398;2023-03-14T05:53:08;5.03;;;1.27;;
8592;SDS011;4334;49.982;8.398;2023-03-14T05:55:35;3.60;;;1.30;;
8592;SDS011;4334;49.982;8.398;2023-03-14T05:58:02;3.50;;;1.20;;
8592;SDS011;4334;49.982;8.398;2023-03-14T06:00:29;3.50;;;1.40;;
8592;SDS011;4334;49.982;8.398;2023-03-14T06:02:57;2.17;;;1.07;;
8592;SDS011;4334;49.982;8.398;2023-03-14T06:05:24;4.83;;;1.30;;
8592;SDS011;4334;49.982;8.398;2023-03-14T06:07:51;2.83;;;1.10;;
8592;SDS011;4334;49.982;8.398;2023-03-14T06:10:17;3.53;;;1.33;;
8592;SDS011;4334;49.982;8.398;2023-03-14T06:12:44;7.97;;;1.57;;
8592;SDS011;4334;49.982;8.398;2023-03-14T06:15:11;3.53;;;1.00;;
8592;SDS011;4334;49.982;8.398;2023-03-14T06:17:38;5.60;;;1.50;;
8592;SDS011;4334;49.982;8.398;2023-03-14T06:20:07;3.83;;;1.37;;
8592;SDS011;4334;49.982;8.398;2023-03-14T06:22:35;3.30;;;1.20;;
8592;SDS011;4334;49.982;8.398;2023-03-14T06:25:02;3.50;;;1.00;;
8592;SDS011;4334;49.982;8.398;2023-03-14T06:27:29;4.10;;;1.20;;
8592;SDS011;4334;49.982;8.398;2023-03-14T06:29:56;3.67;;;1.27;;
8592;SDS011;4334;49.982;8.398;2023-03-14T06:32:23;3.10;;;1.50;;
8592;SDS011;4334;49.982;8.398;2023-03-14T06:34:50;3.70;;;1.37;;
8592;SDS011;4334;49.982;8.398;2023-03-14T06:37:18;3.43;;;1.20;;
8592;SDS011;4334;49.982;8.398;2023-03-14T06:39:45;4.80;;;1.50;;
8592;SDS011;4334;49.982;8.398;2023-03-14T06:42:11;7.07;;;1.90;;
8592;SDS011;4334;49.982;8.398;2023-03-14T06:44:38;4.40;;;1.40;;
8592;SDS011;4334;49.982;8.398;2023-03-14T06:57:11;3.03;;;1.67;;
8592;SDS011;4334;49.982;8.398;2023-03-14T07:06:22;1.67;;;1.10;;
8592;SDS011;4334;49.982;8.398;2023-03-14T07:08:50;1.83;;;0.97;;
8592;SDS011;4334;49.982;8.398;2023-03-14T07:11:17;3.73;;;1.23;;
8592;SDS011;4334;49.982;8.398;2023-03-14T07:13:45;4.30;;;1.20;;
8592;SDS011;4334;49.982;8.398;2023-03-14T07:16:11;5.00;;;1.40;;
8592;SDS011;4334;49.982;8.398;2023-03-14T07:18:38;3.10;;;1.30;;
8592;SDS011;4334;49.982;8.398;2023-03-14T07:21:05;2.13;;;1.00;;
8592;SDS011;4334;49.982;8.398;2023-03-14T07:23:34;2.23;;;1.13;;
8592;SDS011;4334;49.982;8.398;2023-03-14T07:26:01;4.30;;;1.10;;
8592;SDS011;4334;49.982;8.398;2023-03-14T07:28:28;1.87;;;0.77;;
8592;SDS011;4334;49.982;8.398;2023-03-14T07:30:56;4.30;;;1.07;;
8592;SDS011;4334;49.982;8.398;2023-03-14T07:33:23;2.63;;;1.07;;
8592;SDS011;4334;49.982;8.398;2023-03-14T07:35:50;5.30;;;1.10;;
8592;SDS011;4334;49.982;8.398;2023-03-14T07:38:17;1.30;;;1.10;;
8592;SDS011;4334;49.982;8.398;2023-03-14T07:40:44;3.17;;;1.10;;
8592;SDS011;4334;49.982;8.398;2023-03-14T07:43:14;3.60;;;1.30;;
8592;SDS011;4334;49.982;8.398;2023-03-14T07:45:41;3.20;;;1.70;;
8592;SDS011;4334;49.982;8.398;2023-03-14T07:48:09;2.00;;;1.20;;
8592;SDS011;4334;49.982;8.398;2023-03-14T07:50:36;3.60;;;1.40;;
8592;SDS011;4334;49.982;8.398;2023-03-14T07:53:03;3.37;;;1.20;;
8592;SDS011;4334;49.982;8.398;2023-03-14T07:55:29;2.77;;;1.30;;
8592;SDS011;4334;49.982;8.398;2023-03-14T07:57:56;2.00;;;1.30;;
8592;SDS011;4334;49.982;8.398;2023-03-14T08:00:23;3.27;;;1.17;;
8592;SDS011;4334;49.982;8.398;2023-03-14T08:02:50;3.13;;;1.27;;
8592;SDS011;4334;49.982;8.398;2023-03-14T08:05:18;2.43;;;1.10;;
8592;SDS011;4334;49.982;8.398;2023-03-14T08:07:45;3.00;;;1.23;;
8592;SDS011;4334;49.982;8.398;2023-03-14T08:10:12;4.50;;;1.20;;
8592;SDS011;4334;49.982;8.398;2023-03-14T08:12:46;1.57;;;1.10;;
8592;SDS011;4334;49.982;8.398;2023-03-14T08:15:13;4.00;;;1.50;;
8592;SDS011;4334;49.982;8.398;2023-03-14T08:17:40;2.30;;;1.20;;
8592;SDS011;4334;49.982;8.398;2023-03-14T08:20:07;1.90;;;0.90;;
8592;SDS011;4334;49.982;8.398;2023-03-14T08:22:38;2.33;;;1.23;;
8592;SDS011;4334;49.982;8.398;2023-03-14T08:28:20;1.97;;;1.20;;
8592;SDS011;4334;49.982;8.398;2023-03-14T08:30:47;1.30;;;1.20;;
8592;SDS011;4334;49.982;8.398;2023-03-14T08:33:13;2.17;;;1.30;;
8592;SDS011;4334;49.982;8.398;2023-03-14T08:35:40;2.07;;;1.27;;
8592;SDS011;4334;49.982;8.398;2023-03-14T08:38:09;1.40;;;1.20;;
8592;SDS011;4334;49.982;8.398;2023-03-14T08:40:36;4.43;;;1.30;;
8592;SDS011;4334;49.982;8.398;2023-03-14T08:43:02;1.73;;;1.10;;
8592;SDS011;4334;49.982;8.398;2023-03-14T08:45:29;1.70;;;1.20;;
8592;SDS011;4334;49.982;8.398;2023-03-14T08:47:57;1.80;;;1.20;;
8592;SDS011;4334;49.982;8.398;2023-03-14T08:50:24;1.67;;;1.20;;
8592;SDS011;4334;49.982;8.398;2023-03-14T08:52:51;1.80;;;1.17;;
8592;SDS011;4334;49.982;8.398;2023-03-14T08:55:19;2.33;;;1.00;;
8592;SDS011;4334;49.982;8.398;2023-03-14T08:57:47;2.33;;;0.90;;
8592;SDS011;4334;49.982;8.398;2023-03-14T09:00:14;1.70;;;0.93;;
8592;SDS011;4334;49.982;8.398;2023-03-14T09:02:42;2.20;;;1.20;;
8592;SDS011;4334;49.982;8.398;2023-03-14T09:05:09;2.07;;;0.80;;
8592;SDS011;4334;49.982;8.398;2023-03-14T09:07:36;1.83;;;1.10;;
8592;SDS011;4334;49.982;8.398;2023-03-14T09:10:04;1.10;;;1.00;;
8592;SDS011;4334;49.982;8.398;2023-03-14T09:12:32;2.50;;;1.03;;
8592;SDS011;4334;49.982;8.398;2023-03-14T09:14:59;3.30;;;1.00;;
8592;SDS011;4334;49.982;8.398;2023-03-14T09:17:26;3.47;;;1.43;;
8592;SDS011;4334;49.982;8.398;2023-03-14T09:19:53;1.23;;;0.90;;
8592;SDS011;4334;49.982;8.398;2023-03-14T09:22:20;1.03;;;1.00;;
8592;SDS011;4334;49.982;8.398;2023-03-14T09:24:47;2.00;;;1.23;;
8592;SDS011;4334;49.982;8.398;2023-03-14T09:27:14;1.27;;;1.03;;
8592;SDS011;4334;49.982;8.398;2023-03-14T09:29:42;1.27;;;1.10;;
8592;SDS011;4334;49.982;8.398;2023-03-14T09:32:09;1.90;;;1.40;;
8592;SDS011;4334;49.982;8.398;2023-03-14T09:34:35;2.53;;;1.70;;
8592;SDS011;4334;49.982;8.398;2023-03-14T09:37:02;19.33;;;5.60;;
8592;SDS011;4334;49.982;8.398;2023-03-14T09:39:29;9.93;;;3.47;;
8592;SDS011;4334;49.982;8.398;2023-03-14T09:41:56;2.20;;;1.50;;
8592;SDS011;4334;49.982;8.398;2023-03-14T09:44:28;13.87;;;1.70;;
8592;SDS011;4334;49.982;8.398;2023-03-14T09:47:00;6.47;;;1.57;;
8592;SDS011;4334;49.982;8.398;2023-03-14T09:49:31;2.60;;;1.10;;
8592;SDS011;4334;49.982;8.398;2023-03-14T09:52:01;1.63;;;1.33;;
8592;SDS011;4334;49.982;8.398;2023-03-14T09:54:31;2.67;;;1.30;;
8592;SDS011;4334;49.982;8.398;2023-03-14T09:57:02;1.57;;;1.30;;
8592;SDS011;4334;49.982;8.398;2023-03-14T09:59:32;2.13;;;1.20;;
8592;SDS011;4334;49.982;8.398;2023-03-14T10:02:10;1.70;;;1.20;;
8592;SDS011;4334;49.982;8.398;2023-03-14T10:04:40;2.47;;;1.30;;
8592;SDS011;4334;49.982;8.398;2023-03-14T10:07:09;2.87;;;1.30;;
8592;SDS011;4334;49.982;8.398;2023-03-14T10:09:42;3.93;;;1.50;;
8592;SDS011;4334;49.982;8.398;2023-03-14T10:12:10;1.20;;;1.10;;
8592;SDS011;4334;49.982;8.398;2023-03-14T10:14:44;1.20;;;1.10;;
8592;SDS011;4334;49.982;8.398;2023-03-14T10:17:13;1.93;;;1.10;;
8592;SDS011;4334;49.982;8.398;2023-03-14T10:19:50;2.00;;;1.20;;
8592;SDS011;4334;49.982;8.398;2023-03-14T10:22:19;1.23;;;1.13;;
8592;SDS011;4334;49.982;8.398;2023-03-14T10:24:49;1.60;;;1.10;;
8592;SDS011;4334;49.982;8.398;2023-03-14T10:27:19;1.53;;;1.00;;
8592;SDS011;4334;49.982;8.398;2023-03-14T10:29:52;1.20;;;1.10;;
8592;SDS011;4334;49.982;8.398;2023-03-14T10:32:23;1.83;;;1.20;;
8592;SDS011;4334;49.982;8.398;2023-03-14T10:35:11;2.60;;;1.40;;
8592;SDS011;4334;49.982;8.398;2023-03-14T10:37:50;1.97;;;1.50;;
8592;SDS011;4334;49.982;8.398;2023-03-14T10:40:20;1.57;;;1.47;;
8592;SDS011;4334;49.982;8.398;2023-03-14T10:42:53;1.60;;;1.50;;
8592;SDS011;4334;49.982;8.398;2023-03-14T10:45:30;3.30;;;1.50;;
8592;SDS011;4334;49.982;8.398;2023-03-14T10:48:05;1.50;;;1.30;;
8592;SDS011;4334;49.982;8.398;2023-03-14T10:50:47;1.57;;;1.37;;
8592;SDS011;4334;49.982;8.398;2023-03-14T10:53:16;1.30;;;1.20;;
8592;SDS011;4334;49.982;8.398;2023-03-14T10:55:44;1.50;;;1.37;;
8592;SDS011;4334;49.982;8.398;2023-03-14T10:58:24;1.43;;;1.30;;
8592;SDS011;4334;49.982;8.398;2023-03-14T11:00:54;1.60;;;1.20;;
8592;SDS011;4334;49.982;8.398;2023-03-14T11:03:31;2.00;;;1.30;;
8592;SDS011;4334;49.982;8.398;2023-03-14T11:06:01;1.40;;;1.20;;
8592;SDS011;4334;49.982;8.398;2023-03-14T11:08:37;2.10;;;1.10;;
8592;SDS011;4334;49.982;8.398;2023-03-14T11:11:12;3.17;;;1.17;;
8592;SDS011;4334;49.982;8.398;2023-03-14T11:13:46;2.13;;;1.50;;
8592;SDS011;4334;49.982;8.398;2023-03-14T11:16:22;1.20;;;1.10;;
8592;SDS011;4334;49.982;8.398;2023-03-14T11:25:37;1.43;;;1.20;;
8592;SDS011;4334;49.982;8.398;2023-03-14T11:28:14;2.20;;;1.13;;
8592;SDS011;4334;49.982;8.398;2023-03-14T11:30:46;1.07;;;0.97;;
8592;SDS011;4334;49.982;8.398;2023-03-14T11:33:18;1.50;;;1.00;;
8592;SDS011;4334;49.982;8.398;2023-03-14T11:35:51;2.30;;;1.17;;
8592;SDS011;4334;49.982;8.398;2023-03-14T11:38:29;1.50;;;1.00;;
8592;SDS011;4334;49.982;8.398;2023-03-14T11:40:59;0.80;;;0.80;;
8592;SDS011;4334;49.982;8.398;2023-03-14T11:43:28;2.37;;;1.10;;
8592;SDS011;4334;49.982;8.398;2023-03-14T11:45:58;1.30;;;0.90;;
8592;SDS011;4334;49.982;8.398;2023-03-14T11:48:34;1.20;;;0.90;;
8592;SDS011;4334;49.982;8.398;2023-03-14T11:51:07;2.87;;;1.57;;
8592;SDS011;4334;49.982;8.398;2023-03-14T11:53:41;0.83;;;0.83;;
8592;SDS011;4334;49.982;8.398;2023-03-14T11:56:16;1.03;;;0.73;;
8592;SDS011;4334;49.982;8.398;2023-03-14T11:58:50;1.63;;;0.63;;
8592;SDS011;4334;49.982;8.398;2023-03-14T12:01:21;0.40;;;0.40;;
8592;SDS011;4334;49.982;8.398;2023-03-14T12:03:54;0.63;;;0.30;;
8592;SDS011;4334;49.982;8.398;2023-03-14T12:06:27;1.23;;;0.30;;
8592;SDS011;4334;49.982;8.398;2023-03-14T12:08:57;0.53;;;0.30;;
8592;SDS011;4334;49.982;8.398;2023-03-14T12:11:30;2.00;;;0.60;;
8592;SDS011;4334;49.982;8.398;2023-03-14T12:14:02;0.47;;;0.47;;
8592;SDS011;4334;49.982;8.398;2023-03-14T12:16:36;4.03;;;0.77;;
8592;SDS011;4334;49.982;8.398;2023-03-14T12:22:01;0.40;;;0.40;;
8592;SDS011;4334;49.982;8.398;2023-03-14T12:24:44;0.30;;;0.30;;
8592;SDS011;4334;49.982;8.398;2023-03-14T12:27:43;0.13;;;0.13;;
8592;SDS011;4334;49.982;8.398;2023-03-14T12:33:38;0.30;;;0.30;;
8592;SDS011;4334;49.982;8.398;2023-03-14T12:36:11;0.23;;;0.23;;
8592;SDS011;4334;49.982;8.398;2023-03-14T12:39:01;0.20;;;0.20;;
8592;SDS011;4334;49.982;8.398;2023-03-14T12:41:41;0.30;;;0.30;;
8592;SDS011;4334;49.982;8.398;2023-03-14T12:50:21;0.33;;;0.33;;
8592;SDS011;4334;49.982;8.398;2023-03-14T12:55:55;0.50;;;0.47;;
8592;SDS011;4334;49.982;8.398;2023-03-14T12:58:29;0.73;;;0.50;;
8592;SDS011;4334;49.982;8.398;2023-03-14T13:01:02;0.47;;;0.40;;
8592;SDS011;4334;49.982;8.398;2023-03-14T13:03:42;0.40;;;0.40;;
8592;SDS011;4334;49.982;8.398;2023-03-14T13:06:11;0.40;;;0.40;;
8592;SDS011;4334;49.982;8.398;2023-03-14T13:08:40;0.20;;;0.20;;
8592;SDS011;4334;49.982;8.398;2023-03-14T13:11:10;0.33;;;0.33;;
8592;SDS011;4334;49.982;8.398;2023-03-14T13:13:41;0.37;;;0.37;;
8592;SDS011;4334;49.982;8.398;2023-03-14T13:16:12;0.50;;;0.50;;
8592;SDS011;4334;49.982;8.398;2023-03-14T13:18:43;0.60;;;0.50;;
8592;SDS011;4334;49.982;8.398;2023-03-14T13:21:11;0.37;;;0.37;;
8592;SDS011;4334;49.982;8.398;2023-03-14T13:23:42;0.40;;;0.40;;
8592;SDS011;4334;49.982;8.398;2023-03-14T13:26:22;1.03;;;0.43;;
8592;SDS011;4334;49.982;8.398;2023-03-14T13:28:51;0.73;;;0.40;;
8592;SDS011;4334;49.982;8.398;2023-03-14T13:31:21;1.67;;;0.60;;
8592;SDS011;4334;49.982;8.398;2023-03-14T13:33:59;0.60;;;0.60;;
8592;SDS011;4334;49.982;8.398;2023-03-14T13:36:26;0.40;;;0.40;;
8592;SDS011;4334;49.982;8.398;2023-03-14T13:38:56;0.40;;;0.40;;
8592;SDS011;4334;49.982;8.398;2023-03-14T13:41:25;0.77;;;0.60;;
8592;SDS011;4334;49.982;8.398;2023-03-14T13:43:56;0.60;;;0.40;;
8592;SDS011;4334;49.982;8.398;2023-03-14T13:46:28;0.90;;;0.70;;
8592;SDS011;4334;49.982;8.398;2023-03-14T13:48:56;1.03;;;0.63;;
8592;SDS011;4334;49.982;8.398;2023-03-14T13:51:27;1.27;;;0.80;;
8592;SDS011;4334;49.982;8.398;2023-03-14T13:53:57;0.90;;;0.90;;
8592;SDS011;4334;49.982;8.398;2023-03-14T13:56:27;0.70;;;0.70;;
8592;SDS011;4334;49.982;8.398;2023-03-14T13:58:55;1.83;;;0.90;;
8592;SDS011;4334;49.982;8.398;2023-03-14T14:01:22;1.27;;;1.10;;
8592;SDS011;4334;49.982;8.398;2023-03-14T14:03:51;1.33;;;1.00;;
8592;SDS011;4334;49.982;8.398;2023-03-14T14:06:23;1.40;;;1.10;;
8592;SDS011;4334;49.982;8.398;2023-03-14T14:08:54;1.37;;;1.10;;
8592;SDS011;4334;49.982;8.398;2023-03-14T14:11:33;1.30;;;1.20;;
8592;SDS011;4334;49.982;8.398;2023-03-14T14:14:05;0.70;;;0.70;;
8592;SDS011;4334;49.982;8.398;2023-03-14T14:16:36;1.70;;;1.10;;
8592;SDS011;4334;49.982;8.398;2023-03-14T14:19:03;1.10;;;1.00;;
8592;SDS011;4334;49.982;8.398;2023-03-14T14:21:30;0.90;;;0.90;;
8592;SDS011;4334;49.982;8.398;2023-03-14T14:23:57;3.00;;;1.00;;
8592;SDS011;4334;49.982;8.398;2023-03-14T14:26:26;1.53;;;1.20;;
8592;SDS011;4334;49.982;8.398;2023-03-14T14:29:00;1.33;;;1.23;;
8592;SDS011;4334;49.982;8.398;2023-03-14T14:31:28;1.10;;;1.03;;
8592;SDS011;4334;49.982;8.398;2023-03-14T14:33:56;1.50;;;1.20;;
8592;SDS011;4334;49.982;8.398;2023-03-14T14:36:25;2.50;;;1.20;;
8592;SDS011;4334;49.982;8.398;2023-03-14T20:36:42;4.57;;;1.67;;
8592;SDS011;4334;49.982;8.398;2023-03-14T20:39:09;5.20;;;2.30;;
8592;SDS011;4334;49.982;8.398;2023-03-14T20:41:38;8.83;;;2.20;;
8592;SDS011;4334;49.982;8.398;2023-03-14T20:44:06;4.83;;;2.07;;
8592;SDS011;4334;49.982;8.398;2023-03-14T20:46:35;6.33;;;1.60;;
8592;SDS011;4334;49.982;8.398;2023-03-14T20:49:02;5.97;;;2.07;;
8592;SDS011;4334;49.982;8.398;2023-03-14T20:51:28;4.80;;;1.70;;
8592;SDS011;4334;49.982;8.398;2023-03-14T20:53:56;3.17;;;1.87;;
8592;SDS011;4334;49.982;8.398;2023-03-14T20:56:23;7.90;;;2.57;;
8592;SDS011;4334;49.982;8.398;2023-03-14T20:58:50;8.07;;;2.07;;
8592;SDS011;4334;49.982;8.398;2023-03-14T21:01:17;6.03;;;2.93;;
8592;SDS011;4334;49.982;8.398;2023-03-14T21:03:44;5.67;;;2.50;;
8592;SDS011;4334;49.982;8.398;2023-03-14T21:06:11;4.90;;;2.33;;
8592;SDS011;4334;49.982;8.398;2023-03-14T21:08:38;8.27;;;2.13;;
8592;SDS011;4334;49.982;8.398;2023-03-14T21:11:07;4.37;;;2.30;;
8592;SDS011;4334;49.982;8.398;2023-03-14T21:13:34;4.93;;;2.90;;
8592;SDS011;4334;49.982;8.398;2023-03-14T21:16:01;5.07;;;2.00;;
8592;SDS011;4334;49.982;8.398;2023-03-14T21:18:29;5.53;;;2.30;;
8592;SDS011;4334;49.982;8.398;2023-03-14T21:20:56;5.13;;;2.17;;
8592;SDS011;4334;49.982;8.398;2023-03-14T21:23:23;4.53;;;2.10;;
8592;SDS011;4334;49.982;8.398;2023-03-14T21:25:51;8.07;;;2.33;;
8592;SDS011;4334;49.982;8.398;2023-03-14T21:28:21;6.97;;;2.13;;
8592;SDS011;4334;49.982;8.398;2023-03-14T21:30:48;5.00;;;1.90;;
8592;SDS011;4334;49.982;8.398;2023-03-14T21:33:15;3.80;;;2.53;;
8592;SDS011;4334;49.982;8.398;2023-03-14T21:35:41;5.30;;;1.80;;
8592;SDS011;4334;49.982;8.398;2023-03-14T21:38:08;6.60;;;2.20;;
8592;SDS011;4334;49.982;8.398;2023-03-14T21:40:35;6.20;;;2.10;;
8592;SDS011;4334;49.982;8.398;2023-03-14T21:43:02;2.77;;;1.70;;
8592;SDS011;4334;49.982;8.398;2023-03-14T21:45:30;9.20;;;2.30;;
8592;SDS011;4334;49.982;8.398;2023-03-14T21:47:59;5.60;;;2.07;;
8592;SDS011;4334;49.982;8.398;2023-03-14T21:50:27;11.33;;;2.40;;
8592;SDS011;4334;49.982;8.398;2023-03-14T21:52:54;8.87;;;2.20;;
8592;SDS011;4334;49.982;8.398;2023-03-14T21:55:22;7.57;;;2.23;;
8592;SDS011;4334;49.982;8.398;2023-03-14T21:57:49;8.67;;;2.13;;
8592;SDS011;4334;49.982;8.398;2023-03-14T22:00:17;5.33;;;2.20;;
8592;SDS011;4334;49.982;8.398;2023-03-14T22:02:48;7.10;;;1.93;;
8592;SDS011;4334;49.982;8.398;2023-03-14T22:05:17;8.23;;;2.00;;
8592;SDS011;4334;49.982;8.398;2023-03-14T22:07:45;6.30;;;2.40;;
8592;SDS011;4334;49.982;8.398;2023-03-14T22:10:12;6.63;;;2.37;;
8592;SDS011;4334;49.982;8.398;2023-03-14T22:12:40;7.17;;;2.33;;
8592;SDS011;4334;49.982;8.398;2023-03-14T22:15:08;11.20;;;2.50;;
8592;SDS011;4334;49.982;8.398;2023-03-14T22:17:36;7.30;;;2.27;;
8592;SDS011;4334;49.982;8.398;2023-03-14T22:20:05;10.33;;;2.60;;
8592;SDS011;4334;49.982;8.398;2023-03-14T22:22:34;6.27;;;2.20;;
8592;SDS011;4334;49.982;8.398;2023-03-14T22:25:01;9.50;;;2.43;;
8592;SDS011;4334;49.982;8.398;2023-03-14T22:27:28;8.00;;;2.97;;
8592;SDS011;4334;49.982;8.398;2023-03-14T22:29:55;3.90;;;2.07;;
8592;SDS011;4334;49.982;8.398;2023-03-14T22:32:22;7.23;;;2.27;;
8592;SDS011;4334;49.982;8.398;2023-03-14T22:34:49;8.63;;;2.07;;
8592;SDS011;4334;49.982;8.398;2023-03-14T22:37:17;7.73;;;2.20;;
8592;SDS011;4334;49.982;8.398;2023-03-14T22:39:44;4.47;;;2.10;;
8592;SDS011;4334;49.982;8.398;2023-03-14T22:42:11;11.20;;;2.57;;
8592;SDS011;4334;49.982;8.398;2023-03-14T22:44:38;9.37;;;2.50;;
8592;SDS011;4334;49.982;8.398;2023-03-14T22:47:05;7.07;;;2.20;;
8592;SDS011;4334;49.982;8.398;2023-03-14T22:49:32;5.03;;;2.23;;
8592;SDS011;4334;49.982;8.398;2023-03-14T22:51:58;5.27;;;2.27;;
8592;SDS011;4334;49.982;8.398;2023-03-14T22:54:27;6.87;;;2.10;;
8592;SDS011;4334;49.982;8.398;2023-03-14T22:56:53;5.83;;;2.30;;
8592;SDS011;4334;49.982;8.398;2023-03-14T22:59:20;6.73;;;2.37;;
8592;SDS011;4334;49.982;8.398;2023-03-14T23:01:47;5.00;;;1.80;;
8592;SDS011;4334;49.982;8.398;2023-03-14T23:04:14;8.43;;;2.40;;
8592;SDS011;4334;49.982;8.398;2023-03-14T23:06:40;12.37;;;2.40;;
8592;SDS011;4334;49.982;8.398;2023-03-14T23:09:07;8.37;;;3.27;;
8592;SDS011;4334;49.982;8.398;2023-03-14T23:11:37;8.53;;;2.63;;
8592;SDS011;4334;49.982;8.398;2023-03-14T23:14:05;6.07;;;2.47;;
8592;SDS011;4334;49.982;8.398;2023-03-14T23:16:32;10.00;;;2.93;;
8592;SDS011;4334;49.982;8.398;2023-03-14T23:18:58;9.10;;;2.50;;
8592;SDS011;4334;49.982;8.398;2023-03-14T23:21:26;6.63;;;2.40;;
8592;SDS011;4334;49.982;8.398;2023-03-14T23:23:52;5.90;;;2.20;;
8592;SDS011;4334;49.982;8.398;2023-03-14T23:26:20;5.37;;;1.63;;
8592;SDS011;4334;49.982;8.398;2023-03-14T23:28:50;9.97;;;2.77;;
8592;SDS011;4334;49.982;8.398;2023-03-14T23:31:18;7.13;;;2.40;;
8592;SDS011;4334;49.982;8.398;2023-03-14T23:33:45;11.17;;;2.53;;
8592;SDS011;4334;49.982;8.398;2023-03-14T23:36:13;7.73;;;2.70;;
8592;SDS011;4334;49.982;8.398;2023-03-14T23:38:42;9.03;;;2.30;;
8592;SDS011;4334;49.982;8.398;2023-03-14T23:41:11;9.00;;;2.63;;
8592;SDS011;4334;49.982;8.398;2023-03-14T23:43:39;8.53;;;2.37;;